Schedule Details


Flight Number: CTN4466
Departure: Cilipi (LDDU) at 07:05
Arrival: Zurich (LSZH) at 09:20
Route: AMUGO L611 UVODI L862 SABAD DCT GIMIX DCT ERKIR L608 KPT L856 NEGRA

Weather Information
LDDU 221530Z 17006KT 130V200 CAVOK 21/12 Q1019 NOSIG
LSZH 221550Z 10003KT 070V150 CAVOK 24/13 Q1010 NOSIG
Schedule Frequency

Route Map